Calistoga, CA

2:38 PM PST on February 10, 2016 (GMT -0800)
Calistoga | | Change Station
CLOSE
Current Station
Personal Weather Station
Location: Calistoga, CA
Elevation: 367 ft
Nearby Weather Stations

Elev 367 ft 38.59 °N, 122.58 °W | Updated 60 seconds ago

Partly Cloudy
Partly Cloudy
73.3 °F
Feels Like 77 °F
N
2.0
Wind Variable Wind from NNW
Gusts 0.0 mph

Today
High -- | Low -- °F
--% Chance of Precip.
Yesterday
High -- | Low -- °F
Precip. -- in
Pressure 30.19 in
Visibility 10.0 miles
Clouds Mostly Cloudy 20000 ft
Heat Index 77 °F
Dew Point 48 °F
Humidity 40%
Rainfall 0.00 in
Snow Depth Not available.
7:07 AM 5:42 PM
Waxing Crescent, 7% visible
SPECI KSTS 102224Z 00000KT 10SM BKN200 21/10 A3019 RMK AO2 T02060100
Pressure 30.19 in
Visibility 10.0 miles
Clouds Mostly Cloudy 20000 ft
Heat Index 77 °F
Dew Point 48 °F
Humidity 40%
Rainfall 0.00 in
Snow Depth Not available.
7:07 AM 5:42 PM
Waxing Crescent, 7% visible
SPECI KSTS 102224Z 00000KT 10SM BKN200 21/10 A3019 RMK AO2 T02060100

10-Day Weather Forecast

Almanac

Astronomy

Feb. 10, 2016 Rise Set
Actual Time
Civil Twilight
Nautical Twilight
Astronomical Twilight
Moon
Length of Visible Light
Length of Day
Tomorrow will be .
, % of the Moon is Illuminated

Today's Extremes

State Highs State Lows

Community

WunderPhotos

Upload Photos

1,891,944 photos uploaded!

WunderBlog® & News

Nearby

Air Quality

  Air Quality AQ Index Pollutant
Not available.

Snow Depth

Station Depth Elevation

Earthquake Activity

City Distance Mag. Time & Date
Minimum magnitude displayed is 2.5.

Coastal Water Temperatures

Place Temperature

Stations

Nearby Weather Stations

Station Location Temp. Windchill Dew Point Humidity Wind Precip. Elev Updated Type
                   

Watches & Warnings

There are currently no watches in effect.